createdAt,value
2023-03-17T00:01:54.286Z,2.87
2023-03-17T00:04:24.005Z,2.47
2023-03-17T00:06:50.831Z,2.40
2023-03-17T00:09:18.880Z,2.50
2023-03-17T00:11:46.142Z,2.80
2023-03-17T00:14:12.814Z,2.50
2023-03-17T00:16:42.894Z,2.40
2023-03-17T00:19:25.544Z,2.50
2023-03-17T00:21:52.265Z,2.30
2023-03-17T00:24:18.940Z,2.37
2023-03-17T00:26:46.115Z,2.63
2023-03-17T00:29:13.327Z,2.43
2023-03-17T00:31:40.193Z,2.50
2023-03-17T00:34:07.869Z,2.67
2023-03-17T00:36:35.548Z,2.73
2023-03-17T00:39:02.255Z,2.80
2023-03-17T00:41:29.437Z,2.60
2023-03-17T00:43:57.178Z,2.70
2023-03-17T00:46:36.020Z,2.60
2023-03-17T00:49:21.269Z,2.80
2023-03-17T00:51:48.726Z,2.80
2023-03-17T00:54:16.741Z,2.77
2023-03-17T00:56:44.832Z,2.60
2023-03-17T00:59:24.162Z,2.40
2023-03-17T01:01:51.308Z,2.73
2023-03-17T01:04:19.447Z,2.70
2023-03-17T01:06:47.009Z,2.53
2023-03-17T01:09:18.464Z,3.10
2023-03-17T01:11:45.785Z,2.57
2023-03-17T01:14:13.154Z,2.60
2023-03-17T01:16:40.754Z,2.73
2023-03-17T01:19:07.558Z,2.80
2023-03-17T01:21:34.564Z,2.63
2023-03-17T01:24:01.565Z,2.50
2023-03-17T01:26:28.502Z,2.37
2023-03-17T01:28:55.401Z,3.10
2023-03-17T01:31:23.489Z,2.43
2023-03-17T01:33:51.281Z,2.50
2023-03-17T01:36:18.495Z,2.50
2023-03-17T01:38:48.094Z,2.67
2023-03-17T01:41:14.873Z,2.70
2023-03-17T01:43:41.694Z,2.90
2023-03-17T01:46:30.085Z,2.70
2023-03-17T01:49:12.679Z,2.83
2023-03-17T01:51:44.336Z,3.10
2023-03-17T01:54:37.418Z,2.50
2023-03-17T01:57:12.881Z,2.30
2023-03-17T01:59:46.084Z,2.77
2023-03-17T02:02:18.432Z,2.87
2023-03-17T02:04:45.105Z,2.80
2023-03-17T02:07:12.556Z,2.67
2023-03-17T02:09:39.956Z,2.77
2023-03-17T02:12:07.766Z,2.80
2023-03-17T02:14:34.509Z,2.70
2023-03-17T02:17:01.568Z,2.80
2023-03-17T02:19:28.645Z,2.77
2023-03-17T02:22:00.386Z,2.73
2023-03-17T02:24:39.109Z,2.87
2023-03-17T02:27:15.916Z,3.20
2023-03-17T02:29:46.152Z,2.80
2023-03-17T02:32:15.012Z,2.80
2023-03-17T02:34:41.909Z,2.90
2023-03-17T02:37:08.744Z,2.77
2023-03-17T02:39:36.203Z,2.60
2023-03-17T02:42:03.786Z,2.83
2023-03-17T02:44:31.391Z,2.90
2023-03-17T02:46:58.495Z,2.47
2023-03-17T02:49:26.042Z,3.00
2023-03-17T02:51:53.361Z,2.70
2023-03-17T02:54:20.348Z,2.90
2023-03-17T02:56:47.071Z,3.17
2023-03-17T02:59:13.863Z,2.93
2023-03-17T03:01:40.583Z,2.93
2023-03-17T03:04:07.454Z,2.93
2023-03-17T03:06:34.617Z,2.77
2023-03-17T03:09:01.481Z,3.00
2023-03-17T03:11:29.328Z,2.70
2023-03-17T03:13:56.238Z,3.00
2023-03-17T03:16:22.930Z,2.90
2023-03-17T03:18:49.608Z,2.60
2023-03-17T03:21:16.339Z,2.87
2023-03-17T03:23:43.338Z,3.17
2023-03-17T03:26:10.135Z,2.80
2023-03-17T03:28:37.237Z,3.20
2023-03-17T03:31:04.125Z,2.87
2023-03-17T03:33:31.276Z,3.17
2023-03-17T03:35:58.118Z,2.57
2023-03-17T03:38:25.222Z,2.70
2023-03-17T03:40:51.984Z,2.97
2023-03-17T03:43:23.308Z,3.10
2023-03-17T03:45:51.443Z,2.80
2023-03-17T03:48:18.989Z,2.97
2023-03-17T03:50:45.681Z,2.70
2023-03-17T03:53:12.932Z,3.10
2023-03-17T03:55:39.851Z,3.00
2023-03-17T03:58:06.820Z,3.03
2023-03-17T04:00:34.307Z,3.17
2023-03-17T04:03:01.622Z,2.80
2023-03-17T04:05:28.441Z,2.90
2023-03-17T04:07:55.543Z,3.17
2023-03-17T04:10:23.231Z,3.53
2023-03-17T04:12:50.250Z,2.77
2023-03-17T04:15:19.520Z,2.83
2023-03-17T04:17:47.454Z,3.30
2023-03-17T04:20:16.185Z,3.00
2023-03-17T04:22:43.673Z,2.70
2023-03-17T04:25:13.525Z,3.20
2023-03-17T04:27:41.794Z,2.80
2023-03-17T04:30:13.551Z,2.70
2023-03-17T04:32:40.500Z,3.20
2023-03-17T04:35:09.144Z,3.07
2023-03-17T04:37:36.189Z,2.73
2023-03-17T04:40:03.097Z,3.10
2023-03-17T04:42:29.740Z,3.30
2023-03-17T04:44:56.446Z,3.07
2023-03-17T04:47:23.240Z,2.53
2023-03-17T04:49:49.886Z,2.90
2023-03-17T04:52:16.917Z,3.80
2023-03-17T04:54:43.697Z,2.70
2023-03-17T04:57:10.614Z,2.70
2023-03-17T04:59:37.362Z,2.90
2023-03-17T05:02:04.303Z,3.50
2023-03-17T05:04:32.474Z,5.07
2023-03-17T05:06:59.887Z,4.27
2023-03-17T05:09:28.578Z,3.80
2023-03-17T05:11:55.978Z,3.77
2023-03-17T05:14:22.710Z,3.37
2023-03-17T05:16:49.911Z,3.50
2023-03-17T05:19:17.809Z,3.67
2023-03-17T05:21:44.653Z,3.60
2023-03-17T05:24:11.708Z,3.60
2023-03-17T05:26:38.496Z,3.60
2023-03-17T05:29:05.523Z,3.60
2023-03-17T05:31:32.839Z,3.70
2023-03-17T05:34:00.062Z,4.03
2023-03-17T05:36:26.765Z,3.93
2023-03-17T05:38:53.939Z,3.13
2023-03-17T05:41:20.809Z,3.07
2023-03-17T05:43:47.615Z,3.10
2023-03-17T05:46:14.652Z,3.20
2023-03-17T05:48:41.863Z,3.10
2023-03-17T05:51:08.589Z,3.20
2023-03-17T05:53:38.669Z,3.13
2023-03-17T05:56:06.506Z,3.00
2023-03-17T05:58:33.244Z,3.10
2023-03-17T06:01:00.195Z,2.80
2023-03-17T06:03:27.488Z,3.10
2023-03-17T06:05:54.531Z,2.93
2023-03-17T06:08:21.327Z,3.10
2023-03-17T06:10:48.388Z,3.10
2023-03-17T06:13:15.499Z,3.00
2023-03-17T06:15:43.141Z,3.33
2023-03-17T06:18:10.067Z,3.27
2023-03-17T06:20:37.205Z,3.00
2023-03-17T06:23:05.819Z,3.27
2023-03-17T06:25:34.642Z,3.20
2023-03-17T06:28:03.682Z,3.43
2023-03-17T06:30:32.859Z,3.00
2023-03-17T06:33:00.380Z,3.00
2023-03-17T06:35:27.594Z,2.93
2023-03-17T06:37:54.687Z,2.90
2023-03-17T06:40:21.769Z,2.90
2023-03-17T06:42:48.578Z,2.87
2023-03-17T06:45:15.924Z,3.10
2023-03-17T06:47:42.804Z,3.30
2023-03-17T06:50:11.358Z,3.00
2023-03-17T06:52:38.570Z,3.40
2023-03-17T06:55:06.242Z,3.30
2023-03-17T06:57:33.170Z,3.20
2023-03-17T06:59:59.879Z,3.20
2023-03-17T07:02:26.688Z,3.20
2023-03-17T07:04:53.636Z,2.73
2023-03-17T07:07:21.103Z,2.80
2023-03-17T07:09:48.043Z,2.90
2023-03-17T07:12:14.919Z,2.90
2023-03-17T07:14:41.822Z,2.90
2023-03-17T07:17:13.347Z,2.90
2023-03-17T07:19:40.696Z,2.83
2023-03-17T07:22:09.524Z,3.07
2023-03-17T07:24:36.200Z,3.20
2023-03-17T07:27:04.220Z,2.80
2023-03-17T07:29:32.515Z,3.00
2023-03-17T07:31:59.185Z,3.10
2023-03-17T07:34:26.077Z,2.60
2023-03-17T07:36:52.759Z,2.90
2023-03-17T07:39:19.950Z,2.80
2023-03-17T07:41:52.775Z,2.80
2023-03-17T07:44:19.745Z,2.90
2023-03-17T07:46:46.559Z,3.20
2023-03-17T07:49:13.336Z,2.77
2023-03-17T07:51:43.092Z,2.80
2023-03-17T07:54:14.810Z,2.80
2023-03-17T07:56:42.477Z,2.60
2023-03-17T07:59:10.864Z,2.70
2023-03-17T08:01:38.448Z,2.87
2023-03-17T08:04:05.515Z,2.63
2023-03-17T08:06:32.544Z,2.57
2023-03-17T08:08:59.611Z,2.60
2023-03-17T08:11:28.934Z,2.50
2023-03-17T08:13:56.085Z,2.57
2023-03-17T08:16:22.914Z,2.60
2023-03-17T08:18:49.809Z,2.43
2023-03-17T08:21:16.737Z,2.60
2023-03-17T08:23:43.682Z,2.60
2023-03-17T08:26:10.759Z,2.30
2023-03-17T08:28:37.497Z,2.63
2023-03-17T08:31:13.516Z,2.43
2023-03-17T08:33:42.125Z,2.47
2023-03-17T08:36:11.296Z,2.53
2023-03-17T08:38:39.469Z,2.83
2023-03-17T08:41:09.323Z,2.40
2023-03-17T08:43:37.359Z,2.50
2023-03-17T08:46:12.734Z,2.33
2023-03-17T08:48:39.730Z,2.60
2023-03-17T08:51:06.812Z,2.47
2023-03-17T08:53:34.862Z,2.37
2023-03-17T08:56:02.456Z,2.67
2023-03-17T08:58:29.438Z,2.63
2023-03-17T09:01:02.698Z,2.80
2023-03-17T09:03:29.675Z,2.70
2023-03-17T09:05:58.059Z,3.00
2023-03-17T09:08:25.052Z,2.70
2023-03-17T09:10:52.158Z,2.57
2023-03-17T09:13:19.197Z,2.63
2023-03-17T09:15:46.059Z,2.80
2023-03-17T09:18:12.908Z,2.80
2023-03-17T09:20:39.680Z,2.63
2023-03-17T09:23:10.608Z,2.50
2023-03-17T09:25:39.195Z,2.80
2023-03-17T09:28:07.226Z,2.47
2023-03-17T09:30:34.218Z,2.43
2023-03-17T09:33:01.248Z,2.67
2023-03-17T09:35:28.624Z,2.57
2023-03-17T09:37:55.614Z,2.60
2023-03-17T09:40:32.894Z,2.40
2023-03-17T09:43:18.478Z,2.93
2023-03-17T09:45:45.533Z,2.33
2023-03-17T09:48:49.954Z,2.53
2023-03-17T09:51:19.881Z,2.40
2023-03-17T09:53:59.931Z,2.63
2023-03-17T09:56:29.977Z,2.47
2023-03-17T09:59:08.654Z,2.60
2023-03-17T10:01:37.469Z,2.50
2023-03-17T10:04:04.243Z,2.40
2023-03-17T10:06:33.922Z,2.40
2023-03-17T10:09:26.159Z,2.57
2023-03-17T10:12:12.450Z,3.03
2023-03-17T10:14:50.738Z,2.60
2023-03-17T10:17:23.623Z,2.60
2023-03-17T10:19:53.552Z,2.70
2023-03-17T10:22:36.486Z,2.57
2023-03-17T10:25:17.549Z,2.73
2023-03-17T10:27:53.039Z,2.80
2023-03-17T10:30:23.458Z,2.90
2023-03-17T10:32:52.445Z,2.93
2023-03-17T10:35:20.209Z,6.87
2023-03-17T10:37:48.095Z,3.70
2023-03-17T10:40:24.433Z,3.03
2023-03-17T10:43:08.780Z,2.37
2023-03-17T10:45:40.956Z,2.30
2023-03-17T10:48:09.589Z,2.70
2023-03-17T10:50:39.636Z,2.30
2023-03-17T10:53:27.879Z,2.30
2023-03-17T10:56:06.671Z,2.03
2023-03-17T10:58:43.109Z,2.10
2023-03-17T11:01:27.864Z,2.10
2023-03-17T11:03:54.723Z,2.20
2023-03-17T11:06:34.022Z,2.30
2023-03-17T11:09:10.556Z,1.90
2023-03-17T11:11:48.935Z,2.50
2023-03-17T11:14:19.409Z,2.43
2023-03-17T11:16:53.808Z,2.23
2023-03-17T11:19:29.769Z,2.20
2023-03-17T11:22:34.983Z,2.20
2023-03-17T11:25:19.561Z,2.40
2023-03-17T11:28:16.307Z,2.10
2023-03-17T11:30:52.339Z,1.80
2023-03-17T11:33:47.119Z,2.23
2023-03-17T11:36:29.786Z,2.20
2023-03-17T11:38:59.599Z,2.10
2023-03-17T11:41:53.135Z,1.70
2023-03-17T11:44:43.793Z,1.97
2023-03-17T11:47:24.152Z,2.00
2023-03-17T11:50:33.855Z,1.83
2023-03-17T11:53:16.782Z,1.90
2023-03-17T11:55:48.947Z,2.00
2023-03-17T11:58:39.697Z,2.13
2023-03-17T12:01:09.950Z,2.10
2023-03-17T12:03:57.978Z,2.20
2023-03-17T12:06:29.349Z,2.40
2023-03-17T12:09:17.355Z,1.93
2023-03-17T12:11:46.580Z,2.40
2023-03-17T12:14:19.134Z,2.25
2023-03-17T12:17:00.666Z,1.83
2023-03-17T12:19:42.430Z,1.83
2023-03-17T12:22:32.787Z,2.40
2023-03-17T12:25:25.700Z,2.10
2023-03-17T12:28:08.931Z,1.90
2023-03-17T12:30:45.455Z,2.20
2023-03-17T12:33:21.941Z,2.30
2023-03-17T12:35:48.910Z,2.10
2023-03-17T12:38:35.601Z,2.08
2023-03-17T12:41:26.988Z,1.90
2023-03-17T12:44:05.597Z,1.90
2023-03-17T12:46:41.852Z,2.00
2023-03-17T12:49:17.672Z,2.07
2023-03-17T12:51:53.164Z,2.47
2023-03-17T12:54:26.358Z,2.10
2023-03-17T12:56:53.603Z,2.00
2023-03-17T12:59:24.593Z,2.33
2023-03-17T13:02:28.755Z,2.20
2023-03-17T13:05:01.018Z,2.20
2023-03-17T13:07:52.601Z,1.90
2023-03-17T13:10:38.176Z,2.27
2023-03-17T13:13:23.281Z,2.17
2023-03-17T13:15:55.845Z,2.30
2023-03-17T13:18:43.833Z,2.40
2023-03-17T13:21:18.778Z,2.17
2023-03-17T13:23:55.037Z,2.20
2023-03-17T13:26:44.624Z,2.03
2023-03-17T13:29:33.418Z,2.30
2023-03-17T13:32:25.149Z,2.63
2023-03-17T13:35:01.572Z,2.17
2023-03-17T13:37:28.623Z,2.13
2023-03-17T13:39:58.104Z,2.17
2023-03-17T13:42:54.140Z,2.37
2023-03-17T13:45:32.102Z,1.93
2023-03-17T13:48:47.080Z,2.10
2023-03-17T13:51:23.881Z,2.03
2023-03-17T13:53:53.948Z,2.10
2023-03-17T13:56:41.753Z,2.33
2023-03-17T13:59:13.505Z,2.20
2023-03-17T14:01:57.850Z,2.07
2023-03-17T14:04:45.160Z,2.13
2023-03-17T14:07:18.915Z,2.10
2023-03-17T14:09:46.223Z,2.00
2023-03-17T14:12:27.991Z,1.90
2023-03-17T14:15:08.621Z,1.90
2023-03-17T14:17:43.796Z,2.20
2023-03-17T14:20:13.405Z,2.20
2023-03-17T14:22:44.975Z,2.10
2023-03-17T14:25:18.210Z,2.00
2023-03-17T14:27:47.612Z,2.33
2023-03-17T14:30:23.499Z,2.20
2023-03-17T14:33:07.384Z,2.10
2023-03-17T14:35:39.192Z,1.90
2023-03-17T14:38:17.744Z,2.50
2023-03-17T14:40:44.562Z,2.17
2023-03-17T14:43:11.705Z,2.20
2023-03-17T14:45:51.780Z,2.17
2023-03-17T14:48:27.141Z,2.30
2023-03-17T14:51:05.380Z,2.10
2023-03-17T14:53:39.491Z,2.30
2023-03-17T14:56:06.984Z,2.30
2023-03-17T14:58:42.530Z,2.10
2023-03-17T15:01:17.347Z,2.07
2023-03-17T15:04:16.743Z,2.03
2023-03-17T15:06:52.550Z,1.93
2023-03-17T15:09:27.093Z,2.00
2023-03-17T15:12:03.495Z,2.00
2023-03-17T15:14:34.566Z,1.93
2023-03-17T15:17:03.966Z,2.53
2023-03-17T15:19:38.889Z,1.90
2023-03-17T15:22:27.514Z,2.63
2023-03-17T15:25:19.032Z,1.93
2023-03-17T15:27:46.512Z,1.70
2023-03-17T15:30:13.680Z,2.20
2023-03-17T15:32:40.580Z,1.90
2023-03-17T15:35:11.746Z,1.97
2023-03-17T15:37:38.542Z,1.97
2023-03-17T15:40:06.105Z,2.03
2023-03-17T15:42:35.701Z,2.37
2023-03-17T15:45:03.810Z,2.07
2023-03-17T15:47:33.734Z,2.07
2023-03-17T15:50:09.987Z,2.33
2023-03-17T15:52:36.674Z,2.00
2023-03-17T15:55:11.066Z,2.20
2023-03-17T15:57:37.761Z,2.00
2023-03-17T16:00:04.997Z,2.00
2023-03-17T16:02:36.295Z,2.03
2023-03-17T16:05:15.795Z,2.10
2023-03-17T16:07:42.779Z,2.33
2023-03-17T16:10:18.448Z,2.00
2023-03-17T16:12:45.481Z,2.13
2023-03-17T16:15:23.108Z,2.33
2023-03-17T16:17:58.353Z,2.00
2023-03-17T16:20:27.247Z,2.00
2023-03-17T16:22:57.022Z,2.30
2023-03-17T16:25:31.399Z,2.20
2023-03-17T16:28:00.945Z,2.30
2023-03-17T16:30:32.995Z,2.33
2023-03-17T16:33:02.549Z,2.37
2023-03-17T16:35:29.883Z,2.50
2023-03-17T16:37:56.599Z,2.50
2023-03-17T16:40:28.500Z,2.10
2023-03-17T16:42:56.195Z,2.70
2023-03-17T16:45:29.177Z,2.13
2023-03-17T16:47:57.075Z,2.10
2023-03-17T16:50:26.841Z,2.30
2023-03-17T16:52:54.015Z,2.13
2023-03-17T16:55:22.215Z,2.23
2023-03-17T16:57:51.801Z,2.20
2023-03-17T17:00:21.672Z,2.17
2023-03-17T17:02:49.844Z,2.23
2023-03-17T17:05:22.957Z,2.20
2023-03-17T17:07:55.078Z,2.23
2023-03-17T17:10:24.915Z,2.60
2023-03-17T17:12:51.994Z,2.80
2023-03-17T17:15:20.397Z,2.50
2023-03-17T17:17:50.806Z,2.50
2023-03-17T17:20:22.226Z,2.50
2023-03-17T17:22:49.857Z,2.63
2023-03-17T17:25:17.671Z,2.50
2023-03-17T17:27:46.710Z,2.77
2023-03-17T17:30:16.532Z,2.67
2023-03-17T17:32:43.469Z,2.53
2023-03-17T17:35:11.722Z,3.27
2023-03-17T17:37:39.159Z,2.63
2023-03-17T17:40:08.814Z,2.97
2023-03-17T17:42:35.758Z,3.03
2023-03-17T17:45:02.771Z,2.60
2023-03-17T17:47:32.207Z,2.80
2023-03-17T17:49:59.627Z,2.70
2023-03-17T17:52:26.603Z,2.80
2023-03-17T17:54:53.411Z,3.00
2023-03-17T17:57:20.192Z,2.60
2023-03-17T17:59:46.862Z,2.90
2023-03-17T18:02:14.066Z,2.73
2023-03-17T18:04:41.413Z,3.10
2023-03-17T18:07:08.953Z,3.50
2023-03-17T18:09:36.018Z,3.20
2023-03-17T18:12:02.862Z,3.00
2023-03-17T18:14:29.536Z,3.00
2023-03-17T18:16:56.265Z,3.73
2023-03-17T18:19:23.044Z,3.73
2023-03-17T18:21:49.816Z,3.50
2023-03-17T18:24:17.363Z,3.00
2023-03-17T18:26:44.067Z,3.90
2023-03-17T18:29:12.153Z,3.53
2023-03-17T18:31:47.541Z,3.83
2023-03-17T18:34:19.057Z,3.83
2023-03-17T18:36:47.965Z,3.50
2023-03-17T18:39:15.934Z,4.03
2023-03-17T18:41:44.193Z,5.63
2023-03-17T18:44:11.827Z,5.10
2023-03-17T18:46:38.516Z,5.10
2023-03-17T18:49:06.866Z,4.40
2023-03-17T18:51:34.419Z,4.30
2023-03-17T18:54:01.341Z,4.30
2023-03-17T18:56:29.583Z,3.77
2023-03-17T18:58:57.882Z,8.10
2023-03-17T19:01:25.662Z,3.70
2023-03-17T19:03:52.697Z,3.20
2023-03-17T19:06:21.772Z,4.10
2023-03-17T19:08:49.117Z,3.80
2023-03-17T19:11:19.224Z,3.50
2023-03-17T19:13:46.313Z,4.10
2023-03-17T19:16:13.428Z,3.67
2023-03-17T19:18:42.196Z,3.90
2023-03-17T19:21:09.954Z,3.83
2023-03-17T19:23:38.170Z,3.60
2023-03-17T19:26:05.973Z,3.20
2023-03-17T19:28:33.277Z,3.40
2023-03-17T19:31:00.647Z,3.27
2023-03-17T19:33:28.885Z,3.20
2023-03-17T19:35:58.411Z,3.37
2023-03-17T19:38:27.004Z,3.13
2023-03-17T19:40:54.483Z,3.17
2023-03-17T19:43:39.007Z,3.40
2023-03-17T19:46:07.798Z,3.00
2023-03-17T19:48:36.355Z,3.47
2023-03-17T19:51:03.250Z,3.37
2023-03-17T19:53:30.345Z,3.27
2023-03-17T19:55:57.126Z,3.13
2023-03-17T19:58:24.230Z,3.13
2023-03-17T20:00:51.432Z,3.20
2023-03-17T20:03:18.283Z,2.93
2023-03-17T20:05:46.371Z,2.83
2023-03-17T20:08:14.639Z,2.90
2023-03-17T20:10:41.495Z,2.70
2023-03-17T20:13:08.469Z,2.37
2023-03-17T20:15:35.466Z,2.53
2023-03-17T20:18:02.284Z,2.50
2023-03-17T20:20:29.814Z,3.10
2023-03-17T20:22:57.274Z,2.40
2023-03-17T20:25:24.051Z,2.53
2023-03-17T20:27:51.086Z,2.90
2023-03-17T20:30:18.045Z,2.73
2023-03-17T20:32:45.160Z,2.43
2023-03-17T20:35:12.144Z,2.83
2023-03-17T20:37:39.425Z,3.00
2023-03-17T20:40:09.697Z,3.23
2023-03-17T20:42:36.432Z,3.10
2023-03-17T20:45:03.608Z,2.90
2023-03-17T20:47:30.934Z,2.90
2023-03-17T20:49:58.970Z,2.77
2023-03-17T20:52:29.989Z,3.17
2023-03-17T20:54:57.606Z,3.60
2023-03-17T20:57:24.335Z,3.03
2023-03-17T20:59:51.947Z,2.70
2023-03-17T21:02:19.350Z,2.80
2023-03-17T21:04:48.695Z,3.27
2023-03-17T21:07:18.065Z,3.30
2023-03-17T21:09:45.270Z,3.03
2023-03-17T21:12:14.331Z,3.43
2023-03-17T21:14:41.187Z,3.00
2023-03-17T21:17:08.360Z,3.20
2023-03-17T21:19:35.275Z,3.43
2023-03-17T21:22:02.584Z,3.63
2023-03-17T21:24:32.378Z,4.07
2023-03-17T21:27:04.252Z,3.53
2023-03-17T21:29:33.248Z,3.57
2023-03-17T21:32:01.280Z,4.23
2023-03-17T21:34:29.915Z,3.60
2023-03-17T21:36:57.378Z,3.77
2023-03-17T21:39:26.559Z,3.90
2023-03-17T21:41:55.159Z,3.70
2023-03-17T21:44:22.149Z,4.33
2023-03-17T21:46:49.803Z,3.90
2023-03-17T21:49:18.648Z,4.00
2023-03-17T21:51:46.752Z,3.80
2023-03-17T21:54:14.184Z,4.83
2023-03-17T21:56:41.564Z,4.10
2023-03-17T21:59:10.945Z,4.70
2023-03-17T22:01:40.509Z,4.20
2023-03-17T22:04:07.832Z,4.60
2023-03-17T22:06:34.538Z,4.50
2023-03-17T22:09:01.597Z,4.17
2023-03-17T22:11:28.390Z,4.30
2023-03-17T22:13:55.775Z,4.20
2023-03-17T22:16:22.577Z,4.47
2023-03-17T22:18:49.349Z,4.53
2023-03-17T22:21:16.215Z,3.93
2023-03-17T22:23:42.957Z,4.57
2023-03-17T22:26:14.687Z,4.03
2023-03-17T22:28:43.575Z,4.00
2023-03-17T22:31:18.882Z,4.23
2023-03-17T22:33:46.303Z,4.40
2023-03-17T22:36:13.143Z,4.50
2023-03-17T22:38:40.312Z,4.53
2023-03-17T22:41:09.302Z,4.50
2023-03-17T22:43:36.831Z,4.00
2023-03-17T22:46:04.522Z,4.40
2023-03-17T22:48:32.668Z,4.20
2023-03-17T22:51:03.257Z,3.63
2023-03-17T22:53:31.428Z,4.13
2023-03-17T22:55:58.733Z,4.70
2023-03-17T22:58:26.025Z,4.37
2023-03-17T23:00:53.648Z,4.43
2023-03-17T23:03:21.047Z,4.47
2023-03-17T23:05:49.793Z,4.40
2023-03-17T23:08:17.784Z,4.13
2023-03-17T23:10:46.876Z,4.40
2023-03-17T23:13:14.036Z,4.80
2023-03-17T23:15:41.440Z,4.30
2023-03-17T23:18:09.258Z,3.87
2023-03-17T23:20:36.842Z,3.83
2023-03-17T23:23:04.079Z,4.40
2023-03-17T23:25:31.590Z,4.87
2023-03-17T23:27:58.271Z,4.60
2023-03-17T23:30:25.339Z,4.20
2023-03-17T23:32:52.505Z,4.87
2023-03-17T23:35:20.361Z,4.70
2023-03-17T23:37:47.214Z,4.13
2023-03-17T23:40:17.134Z,5.00
2023-03-17T23:42:54.214Z,5.00
2023-03-17T23:45:23.215Z,4.53
2023-03-17T23:47:51.582Z,4.67
2023-03-17T23:50:19.897Z,5.30
2023-03-17T23:52:48.005Z,4.63
2023-03-17T23:55:17.654Z,4.37
2023-03-17T23:57:44.532Z,4.67
